Time;durP1;ratioP1;P1;durP2;ratioP2;P2;SDS_P1;SDS_P2;PMS_P1;PMS_P2;Temp;Humidity;BMP_temperature;BMP_pressure;BME280_temperature;BME280_humidity;BME280_pressure;Samples;Min_cycle;Max_cycle;Signal;HPM_P1;HPM_P2
2023/05/30 00:00:47;;;;;;;5.93;5.03;;;;;;;13.96;81.12;94774.34;5077821;28;20181;-68
2023/05/30 00:03:15;;;;;;;5.60;5.10;;;;;;;13.92;81.45;94776.31;5076495;28;20633;-68
2023/05/30 00:05:44;;;;;;;6.22;5.30;;;;;;;13.80;81.36;94773.81;5077064;28;20193;-68
2023/05/30 00:08:11;;;;;;;5.43;4.90;;;;;;;13.66;80.78;94777.22;5076720;28;20192;-68
2023/05/30 00:10:41;;;;;;;5.18;4.68;;;;;;;13.65;81.06;94774.81;5077263;28;20197;-68
2023/05/30 00:13:08;;;;;;;5.20;4.55;;;;;;;13.69;81.00;94784.00;5077229;28;20207;-68
2023/05/30 00:15:36;;;;;;;5.38;4.47;;;;;;;13.73;80.90;94787.59;5076301;28;20205;-68
2023/05/30 00:18:05;;;;;;;4.90;4.47;;;;;;;13.75;80.50;94790.78;5076454;28;20567;-69
2023/05/30 00:20:35;;;;;;;7.10;5.65;;;;;;;13.77;80.47;94787.63;5076776;28;20193;-69
2023/05/30 00:23:03;;;;;;;5.93;5.32;;;;;;;13.77;80.90;94791.22;5076101;28;20204;-68
2023/05/30 00:25:32;;;;;;;6.55;4.78;;;;;;;13.77;81.62;94788.44;5077009;28;20185;-68
2023/05/30 00:28:02;;;;;;;7.43;5.60;;;;;;;13.80;81.82;94790.44;5076469;28;20261;-68
2023/05/30 00:30:31;;;;;;;8.20;5.50;;;;;;;13.82;82.02;94790.06;5076349;28;20197;-68
2023/05/30 00:32:59;;;;;;;6.05;5.45;;;;;;;13.81;81.69;94792.03;5076795;28;20181;-68
2023/05/30 00:35:25;;;;;;;6.05;5.22;;;;;;;13.69;81.40;94786.78;5076085;28;20216;-68
2023/05/30 00:37:52;;;;;;;5.38;4.88;;;;;;;13.57;81.18;94798.91;5077101;28;20181;-68
2023/05/30 00:40:20;;;;;;;4.97;4.53;;;;;;;13.51;80.94;94786.56;5075874;28;20201;-68
2023/05/30 00:42:47;;;;;;;6.65;4.95;;;;;;;13.51;81.03;94794.88;5076090;28;20208;-68
2023/05/30 00:45:16;;;;;;;5.80;5.05;;;;;;;13.54;81.34;94793.31;5076602;28;20231;-68
2023/05/30 00:47:45;;;;;;;5.60;5.10;;;;;;;13.57;81.29;94795.34;5075894;28;20616;-68
2023/05/30 00:50:15;;;;;;;6.28;5.18;;;;;;;13.59;81.06;94799.31;5075778;28;20285;-68
2023/05/30 00:52:45;;;;;;;5.65;5.15;;;;;;;13.59;81.43;94798.53;5075747;28;20197;-69
2023/05/30 00:55:12;;;;;;;6.38;5.30;;;;;;;13.55;81.59;94806.81;5059095;28;20208;-68
2023/05/30 00:57:42;;;;;;;8.15;4.88;;;;;;;13.52;81.67;94792.91;5076666;28;20646;-68
2023/05/30 01:00:12;;;;;;;6.38;5.60;;;;;;;13.49;81.51;94798.00;5076344;28;20260;-68
2023/05/30 01:02:43;;;;;;;6.85;5.18;;;;;;;13.48;81.89;94801.97;5076678;28;20236;-68
2023/05/30 01:05:12;;;;;;;5.75;4.40;;;;;;;13.40;81.70;94800.31;5075543;28;20197;-69
2023/05/30 01:07:43;;;;;;;5.78;4.57;;;;;;;13.42;82.15;94797.13;5076538;28;20188;-68
2023/05/30 01:10:12;;;;;;;5.93;4.70;;;;;;;13.42;81.73;94800.69;5075480;28;20197;-68
2023/05/30 01:12:43;;;;;;;7.05;5.20;;;;;;;13.37;81.82;94795.50;5075509;28;20193;-68
2023/05/30 01:15:14;;;;;;;6.68;4.32;;;;;;;13.35;81.72;94803.38;5075975;28;20202;-68
2023/05/30 01:17:55;;;;;;;5.93;4.38;;;;;;;13.31;82.06;94794.25;5076519;28;20189;-68
2023/05/30 01:20:24;;;;;;;6.28;4.90;;;;;;;13.29;81.69;94798.56;5076195;28;20589;-68
2023/05/30 01:22:55;;;;;;;5.40;4.90;;;;;;;13.30;81.60;94794.63;5075498;28;20591;-68
2023/05/30 01:25:44;;;;;;;5.93;5.07;;;;;;;13.30;81.38;94780.78;5076111;28;20246;-68
2023/05/30 01:28:14;;;;;;;6.32;4.95;;;;;;;13.28;81.49;94783.13;5075027;28;20201;-69
2023/05/30 01:30:44;;;;;;;6.82;5.07;;;;;;;13.29;81.95;94784.69;5074836;28;20621;-69
2023/05/30 01:33:14;;;;;;;5.00;4.57;;;;;;;13.30;82.31;94789.09;5075707;28;20270;-68
2023/05/30 01:35:42;;;;;;;5.50;5.00;;;;;;;13.24;82.01;94788.59;5075179;28;20205;-68
2023/05/30 01:38:08;;;;;;;5.63;5.13;;;;;;;13.15;81.91;94782.53;5075967;28;20244;-68
2023/05/30 01:40:37;;;;;;;5.88;5.07;;;;;;;13.14;82.08;94778.94;5074911;28;20266;-68
2023/05/30 01:43:24;;;;;;;9.63;5.30;;;;;;;13.15;82.23;94785.31;5075460;28;20193;-68
2023/05/30 01:45:55;;;;;;;7.18;5.07;;;;;;;13.15;81.88;94786.09;5075061;28;20243;-69
2023/05/30 01:48:26;;;;;;;5.07;4.68;;;;;;;13.13;82.06;94776.56;5075712;28;20203;-68
2023/05/30 01:50:53;;;;;;;4.88;4.47;;;;;;;13.09;82.24;94781.28;5074684;28;20204;-69
2023/05/30 01:53:24;;;;;;;7.85;4.78;;;;;;;13.09;82.23;94781.28;5074825;28;20196;-69
2023/05/30 01:55:56;;;;;;;6.35;4.78;;;;;;;13.11;82.83;94782.50;5075186;28;20243;-68
2023/05/30 01:58:24;;;;;;;5.28;4.78;;;;;;;13.15;83.46;94788.09;5075315;28;20228;-68
2023/05/30 02:00:54;;;;;;;4.85;4.10;;;;;;;13.14;83.15;94786.47;5074520;28;20276;-68
2023/05/30 02:03:23;;;;;;;7.47;4.43;;;;;;;13.13;83.13;94787.66;5074540;28;20218;-68
2023/05/30 02:05:51;;;;;;;4.53;4.13;;;;;;;13.13;82.96;94793.19;5074535;28;20197;-68
2023/05/30 02:08:19;;;;;;;5.00;4.60;;;;;;;13.15;83.12;94790.84;5074577;28;20209;-68
2023/05/30 02:10:48;;;;;;;6.32;5.20;;;;;;;13.12;82.55;94795.16;5074402;28;20219;-68
2023/05/30 02:13:16;;;;;;;5.95;5.05;;;;;;;13.12;82.46;94800.69;5074153;28;20193;-68
2023/05/30 02:15:45;;;;;;;6.50;4.85;;;;;;;13.08;82.35;94805.41;5075438;28;20266;-68
2023/05/30 02:18:12;;;;;;;6.32;4.82;;;;;;;13.11;82.76;94806.59;5074711;28;20201;-68
2023/05/30 02:20:40;;;;;;;7.32;4.70;;;;;;;13.07;82.32;94803.81;5074095;28;20295;-69
2023/05/30 02:23:08;;;;;;;5.32;4.47;;;;;;;13.02;82.40;94802.16;5074379;28;20190;-69
2023/05/30 02:25:36;;;;;;;6.75;4.75;;;;;;;13.02;82.56;94799.38;5074122;28;20200;-69
2023/05/30 02:28:04;;;;;;;5.88;4.70;;;;;;;13.00;82.49;94798.19;5075209;28;20236;-68
2023/05/30 02:30:32;;;;;;;7.55;5.05;;;;;;;12.98;82.63;94806.03;5074108;28;20207;-68
2023/05/30 02:33:02;;;;;;;6.68;5.38;;;;;;;12.92;81.93;94800.03;5075048;28;20261;-68
2023/05/30 02:35:30;;;;;;;9.45;5.85;;;;;;;12.77;81.51;94803.78;5074710;28;20213;-69
2023/05/30 02:37:57;;;;;;;7.20;6.10;;;;;;;12.70;81.29;94804.47;5078863;28;20612;-69
2023/05/30 02:40:23;;;;;;;8.15;5.55;;;;;;;12.71;81.74;94791.44;5081821;28;20181;-68
2023/05/30 02:42:52;;;;;;;8.95;5.72;;;;;;;12.74;82.00;94794.25;5080714;28;20250;-68
2023/05/30 02:45:20;;;;;;;7.00;5.45;;;;;;;12.76;82.11;94802.19;5080864;28;20196;-68
2023/05/30 02:47:48;;;;;;;6.10;5.22;;;;;;;12.79;82.14;94797.88;5081415;28;20177;-68
2023/05/30 02:50:18;;;;;;;6.45;5.50;;;;;;;12.80;82.50;94797.50;5081891;28;20189;-68
2023/05/30 02:52:46;;;;;;;5.47;4.97;;;;;;;12.79;82.51;94795.09;5082088;28;20185;-68
2023/05/30 02:55:13;;;;;;;6.88;4.90;;;;;;;12.77;82.77;94789.94;5081672;28;20220;-68
2023/05/30 02:57:40;;;;;;;7.63;4.97;;;;;;;12.80;82.99;94799.47;5081741;28;20213;-68
2023/05/30 03:00:10;;;;;;;8.50;6.28;;;;;;;12.79;82.75;94797.88;5080851;28;20209;-69
2023/05/30 03:02:37;;;;;;;8.48;5.72;;;;;;;12.80;82.63;94797.50;5081669;28;20185;-68
2023/05/30 03:05:05;;;;;;;9.13;5.25;;;;;;;12.72;82.19;94799.38;5081533;28;20185;-68
2023/05/30 03:07:35;;;;;;;6.63;5.18;;;;;;;12.70;82.35;94790.63;5081496;28;20262;-68
2023/05/30 03:10:04;;;;;;;7.18;4.90;;;;;;;12.66;82.29;94795.31;5081527;28;20181;-68
2023/05/30 03:12:32;;;;;;;6.22;4.80;;;;;;;12.69;82.26;94796.53;5081652;28;20270;-68
2023/05/30 03:15:00;;;;;;;6.82;4.75;;;;;;;12.64;82.19;94794.09;5080049;28;20600;-68
2023/05/30 03:17:27;;;;;;;5.80;5.30;;;;;;;12.62;82.44;94797.22;5081233;28;20197;-69
2023/05/30 03:19:53;;;;;;;9.52;5.80;;;;;;;12.62;82.27;94800.00;5081472;28;20239;-68
2023/05/30 03:22:22;;;;;;;8.57;5.28;;;;;;;12.61;82.27;94798.41;5080405;28;20298;-68
2023/05/30 03:24:54;;;;;;;9.20;5.45;;;;;;;12.62;82.52;94793.66;5081371;28;20200;-69
2023/05/30 03:27:21;;;;;;;7.82;5.90;;;;;;;12.65;82.52;94799.25;5081223;28;20200;-68
2023/05/30 03:29:52;;;;;;;8.52;5.93;;;;;;;12.69;82.32;94797.34;5081269;28;20185;-68
2023/05/30 03:32:22;;;;;;;8.93;5.45;;;;;;;12.64;82.90;94799.63;5081204;28;20217;-68
2023/05/30 03:34:52;;;;;;;10.63;5.47;;;;;;;12.68;83.04;94800.50;5080215;28;20197;-68
2023/05/30 03:37:20;;;;;;;7.65;5.68;;;;;;;12.71;83.05;94799.75;5080238;28;20199;-69
2023/05/30 03:39:50;;;;;;;7.95;5.53;;;;;;;12.67;82.69;94810.75;5081243;28;20255;-68
2023/05/30 03:42:26;;;;;;;6.43;5.65;;;;;;;12.71;82.80;94810.81;5080510;28;20208;-68
2023/05/30 03:44:56;;;;;;;8.80;5.53;;;;;;;12.70;82.92;94817.50;5080830;28;20181;-69
2023/05/30 03:47:30;;;;;;;9.07;6.57;;;;;;;12.70;82.68;94810.00;5080643;28;20185;-68
2023/05/30 03:49:56;;;;;;;7.30;5.93;;;;;;;12.69;82.76;94813.16;5076996;28;20197;-68
2023/05/30 03:52:27;;;;;;;6.35;5.57;;;;;;;12.69;83.00;94815.91;5076993;28;20205;-68
2023/05/30 03:54:58;;;;;;;9.15;6.07;;;;;;;12.69;83.39;94827.78;5077092;28;20531;-68
2023/05/30 03:57:30;;;;;;;9.48;6.10;;;;;;;12.64;83.38;94819.00;5081340;28;20208;-69
2023/05/30 03:59:57;;;;;;;12.48;6.30;;;;;;;12.67;83.79;94824.59;5081467;28;20204;-69
2023/05/30 04:02:28;;;;;;;6.85;5.47;;;;;;;12.73;83.48;94822.28;5079221;28;20212;-70
2023/05/30 04:04:57;;;;;;;8.93;5.90;;;;;;;12.75;83.49;94828.25;5078999;28;20199;-69
2023/05/30 04:07:24;;;;;;;11.52;6.07;;;;;;;12.78;83.93;94833.03;5077662;28;20201;-70
2023/05/30 04:09:52;;;;;;;6.82;5.70;;;;;;;12.82;83.96;94835.84;5077671;28;20602;-69
2023/05/30 04:12:19;;;;;;;9.63;6.05;;;;;;;12.85;83.93;94838.66;5077846;28;20205;-70
2023/05/30 04:14:52;;;;;;;8.25;6.57;;;;;;;12.83;84.06;94835.50;5078550;28;20205;-70
2023/05/30 04:17:22;;;;;;;12.25;6.65;;;;;;;12.85;83.88;94835.91;5081854;28;20193;-70
2023/05/30 04:19:55;;;;;;;11.18;6.78;;;;;;;12.89;83.98;94850.63;5082000;28;20189;-70
2023/05/30 04:22:24;;;;;;;12.05;7.20;;;;;;;12.88;84.26;94843.47;5079596;28;20294;-70
2023/05/30 04:24:51;;;;;;;13.07;7.93;;;;;;;12.91;84.07;94844.69;5078951;28;20241;-70
2023/05/30 04:27:19;;;;;;;12.70;7.82;;;;;;;12.93;84.07;94854.22;5076838;28;20185;-73
2023/05/30 04:29:46;;;;;;;11.85;8.32;;;;;;;12.93;83.99;94845.94;5076461;28;20204;-72
2023/05/30 04:32:14;;;;;;;16.13;9.13;;;;;;;12.93;84.39;94848.69;5077036;28;20262;-71
2023/05/30 04:34:41;;;;;;;16.30;8.75;;;;;;;12.94;84.40;94852.25;5076485;28;20201;-71
2023/05/30 04:37:10;;;;;;;15.05;8.88;;;;;;;12.97;84.35;94849.53;5075880;28;20208;-72
2023/05/30 04:39:38;;;;;;;16.73;8.30;;;;;;;13.02;84.80;94851.97;5076089;28;20232;-70
2023/05/30 04:42:07;;;;;;;13.32;8.20;;;;;;;13.10;85.13;94849.31;5076206;28;20201;-70
2023/05/30 04:44:37;;;;;;;16.33;8.43;;;;;;;13.16;85.38;94847.81;5075953;28;20228;-72
2023/05/30 04:47:05;;;;;;;15.38;7.53;;;;;;;13.23;85.27;94854.28;5076144;28;20242;-73
2023/05/30 04:49:33;;;;;;;14.38;8.35;;;;;;;13.29;85.52;94846.47;5076453;28;20189;-73
2023/05/30 04:52:00;;;;;;;13.95;8.50;;;;;;;13.36;85.47;94862.34;5076433;28;20204;-74
2023/05/30 04:54:28;;;;;;;12.55;8.00;;;;;;;13.42;85.50;94863.63;5076522;28;20224;-73
2023/05/30 04:56:55;;;;;;;12.85;9.05;;;;;;;13.47;85.87;94869.66;5076133;28;20538;-74
2023/05/30 04:59:22;;;;;;;10.23;7.70;;;;;;;13.51;86.15;94869.69;5076186;28;20201;-75
2023/05/30 05:01:49;;;;;;;11.93;8.57;;;;;;;13.56;86.24;94868.56;5075889;28;20276;-71
2023/05/30 05:04:16;;;;;;;13.52;8.15;;;;;;;13.62;86.02;94872.59;5076085;28;20212;-76
2023/05/30 05:06:45;;;;;;;16.20;8.27;;;;;;;13.68;86.35;94873.84;5075742;28;20624;-73
2023/05/30 05:09:14;;;;;;;10.43;7.05;;;;;;;13.73;86.08;94871.53;5075624;28;20254;-74
2023/05/30 05:11:40;;;;;;;7.43;6.60;;;;;;;13.80;85.41;94883.88;5075691;28;20205;-74
2023/05/30 05:14:08;;;;;;;6.88;5.30;;;;;;;13.87;84.65;94881.19;5075824;28;20205;-73
2023/05/30 05:16:35;;;;;;;5.72;5.22;;;;;;;13.94;83.80;94879.31;5075553;28;20220;-73
2023/05/30 05:19:03;;;;;;;4.85;4.25;;;;;;;14.01;83.32;94877.78;5075134;28;20209;-73
2023/05/30 05:21:30;;;;;;;5.53;4.65;;;;;;;14.05;82.78;94873.88;5074817;28;20684;-72
2023/05/30 05:24:00;;;;;;;5.65;5.07;;;;;;;14.10;82.89;94881.06;5075392;28;20648;-72
2023/05/30 05:26:27;;;;;;;6.20;4.97;;;;;;;14.13;82.54;94881.09;5075217;28;20292;-72
2023/05/30 05:28:56;;;;;;;6.60;5.53;;;;;;;14.17;82.38;94878.38;5075122;28;20736;-73
2023/05/30 05:31:24;;;;;;;5.90;5.40;;;;;;;14.23;82.11;94892.66;5075586;28;20513;-72
2023/05/30 05:33:50;;;;;;;5.88;5.20;;;;;;;14.26;81.73;94892.72;5075562;28;20206;-72
2023/05/30 05:36:18;;;;;;;10.02;5.45;;;;;;;14.29;82.19;94893.94;5075115;28;20225;-73
2023/05/30 05:38:44;;;;;;;7.05;6.13;;;;;;;14.30;82.61;94896.31;5075439;28;20197;-72
2023/05/30 05:41:14;;;;;;;7.40;5.97;;;;;;;14.34;82.64;94893.56;5074860;28;20197;-72
2023/05/30 05:43:42;;;;;;;11.32;7.10;;;;;;;14.38;82.62;94895.22;5075589;28;20274;-72
2023/05/30 05:46:09;;;;;;;7.78;7.07;;;;;;;14.42;82.61;94904.38;5075179;28;20201;-72
2023/05/30 05:48:35;;;;;;;9.02;7.32;;;;;;;14.50;82.31;94910.03;5074743;28;20197;-72
2023/05/30 05:51:02;;;;;;;10.85;8.32;;;;;;;14.57;81.61;94901.78;5074687;28;20208;-72
2023/05/30 05:53:30;;;;;;;9.95;9.00;;;;;;;14.66;81.19;94902.22;5075095;28;20189;-73
2023/05/30 05:55:57;;;;;;;8.98;8.25;;;;;;;14.73;80.90;94910.63;5074818;28;20221;-72
2023/05/30 05:58:27;;;;;;;9.73;8.80;;;;;;;14.79;79.96;94905.53;5074473;28;20636;-73
2023/05/30 06:00:54;;;;;;;9.15;8.25;;;;;;;14.86;79.90;94900.03;5074252;28;20204;-72
2023/05/30 06:03:21;;;;;;;8.18;7.32;;;;;;;14.90;79.41;94903.63;5074487;28;20245;-73
2023/05/30 06:05:48;;;;;;;8.95;7.93;;;;;;;14.96;80.06;94899.31;5075170;28;20207;-72
2023/05/30 06:08:15;;;;;;;11.90;8.63;;;;;;;15.02;79.97;94902.53;5074973;28;20201;-72
2023/05/30 06:10:45;;;;;;;9.35;8.30;;;;;;;15.07;80.14;94905.75;5074948;28;20193;-72
2023/05/30 06:13:12;;;;;;;9.18;8.38;;;;;;;15.14;80.29;94910.53;5073607;28;20609;-72
2023/05/30 06:15:40;;;;;;;9.48;8.68;;;;;;;15.17;79.73;94907.78;5074964;28;20189;-73
2023/05/30 06:18:07;;;;;;;9.80;8.63;;;;;;;15.24;79.74;94909.81;5074578;28;20199;-71
2023/05/30 06:20:34;;;;;;;11.15;8.73;;;;;;;15.29;80.45;94917.81;5074239;28;20204;-72
2023/05/30 06:23:00;;;;;;;10.02;9.15;;;;;;;15.34;80.19;94913.88;5074084;28;20208;-71
2023/05/30 06:25:27;;;;;;;9.63;8.82;;;;;;;15.38;80.28;94907.13;5074695;28;20229;-71
2023/05/30 06:27:54;;;;;;;10.63;9.50;;;;;;;15.45;79.59;94913.94;5074273;28;20201;-72
2023/05/30 06:30:22;;;;;;;9.80;8.80;;;;;;;15.52;79.43;94913.97;5074495;28;20302;-72
2023/05/30 06:32:50;;;;;;;11.75;8.73;;;;;;;15.59;79.35;94920.38;5073983;28;20189;-72
2023/05/30 06:35:19;;;;;;;9.88;8.90;;;;;;;15.68;79.15;94925.59;5073933;28;20193;-72
2023/05/30 06:37:46;;;;;;;12.30;11.07;;;;;;;15.70;78.48;94914.91;5074525;28;20212;-72
2023/05/30 06:40:15;;;;;;;11.60;10.45;;;;;;;15.71;77.50;94921.25;5074113;28;20212;-72
2023/05/30 06:42:42;;;;;;;13.95;10.82;;;;;;;15.70;77.50;94919.66;5074434;28;20207;-72
2023/05/30 06:45:09;;;;;;;13.05;11.05;;;;;;;15.71;77.29;94924.81;5074090;28;20193;-72
2023/05/30 06:47:36;;;;;;;11.93;10.60;;;;;;;15.75;77.31;94922.06;5074064;28;20197;-72
2023/05/30 06:50:06;;;;;;;12.05;10.75;;;;;;;15.80;78.29;94930.06;5074608;28;20516;-72
2023/05/30 06:52:34;;;;;;;13.98;10.75;;;;;;;15.83;78.48;94926.47;5074211;28;20207;-70
2023/05/30 06:55:01;;;;;;;10.55;9.52;;;;;;;15.85;78.13;94919.34;5073664;28;20197;-69
2023/05/30 06:57:29;;;;;;;10.75;9.68;;;;;;;15.84;77.37;94922.50;5074388;28;20570;-70
2023/05/30 06:59:56;;;;;;;10.35;9.32;;;;;;;15.82;76.99;94934.00;5074025;28;20201;-70
2023/05/30 07:02:24;;;;;;;11.23;10.18;;;;;;;15.79;77.37;94925.66;5073932;28;20207;-70
2023/05/30 07:04:51;;;;;;;11.98;10.82;;;;;;;15.86;77.61;94928.47;5074010;28;20258;-74
2023/05/30 07:07:20;;;;;;;12.60;11.30;;;;;;;15.91;77.53;94933.69;5074136;28;20601;-72
2023/05/30 07:09:47;;;;;;;11.10;10.07;;;;;;;15.97;78.50;94928.53;5074346;28;20204;-72
2023/05/30 07:12:14;;;;;;;18.20;16.15;;;;;;;15.99;77.53;94934.50;5073759;28;20200;-72
2023/05/30 07:14:45;;;;;;;13.77;12.25;;;;;;;15.97;76.88;94939.63;5073969;28;20193;-72
2023/05/30 07:17:14;;;;;;;12.63;10.68;;;;;;;15.97;76.42;94931.31;5073851;28;20216;-75
2023/05/30 07:19:40;;;;;;;13.68;10.52;;;;;;;16.00;76.69;94928.53;5074452;28;20223;-75
2023/05/30 07:22:07;;;;;;;11.32;9.57;;;;;;;16.03;76.42;94938.88;5073850;28;20265;-72
2023/05/30 07:24:35;;;;;;;10.38;9.30;;;;;;;16.06;76.17;94942.88;5077958;28;20189;-75
2023/05/30 07:27:02;;;;;;;10.73;9.57;;;;;;;16.10;76.64;94944.47;5077675;28;20517;-74
2023/05/30 07:29:30;;;;;;;11.15;9.57;;;;;;;16.18;76.56;94941.72;5077733;28;20197;-73
2023/05/30 07:31:58;;;;;;;12.40;9.85;;;;;;;16.26;76.74;94946.13;5060834;28;20300;-70
2023/05/30 07:34:26;;;;;;;10.65;9.50;;;;;;;16.30;75.45;94944.13;5077691;28;20250;-71
2023/05/30 07:36:53;;;;;;;11.55;9.23;;;;;;;16.31;75.79;94940.19;5077281;28;20208;-70
2023/05/30 07:39:20;;;;;;;10.73;9.73;;;;;;;16.37;76.42;94941.38;5077068;28;20200;-71
2023/05/30 07:41:48;;;;;;;11.05;9.65;;;;;;;16.43;76.52;94942.59;5077487;28;20209;-71
2023/05/30 07:44:16;;;;;;;10.73;9.18;;;;;;;16.49;76.16;94938.25;5077611;28;20201;-70
2023/05/30 07:46:44;;;;;;;9.63;8.65;;;;;;;16.54;76.43;94946.19;5076995;28;20213;-70
2023/05/30 07:49:11;;;;;;;8.50;7.45;;;;;;;16.58;75.53;94943.41;5076870;28;20204;-73
2023/05/30 07:51:38;;;;;;;7.72;6.95;;;;;;;16.55;74.46;94947.00;5077377;28;20644;-72
2023/05/30 07:54:05;;;;;;;8.73;7.65;;;;;;;16.61;74.70;94945.41;5077082;28;20197;-71
2023/05/30 07:56:33;;;;;;;9.07;7.63;;;;;;;16.69;75.27;94941.44;5077120;28;20324;-71
2023/05/30 07:59:01;;;;;;;7.53;6.93;;;;;;;16.76;74.07;94938.72;5076473;28;20205;-73
2023/05/30 08:01:30;;;;;;;9.30;7.45;;;;;;;16.84;72.58;94943.09;5077643;28;20633;-71
2023/05/30 08:04:00;;;;;;;8.57;7.43;;;;;;;16.92;72.56;94945.88;5077364;28;20527;-70
2023/05/30 08:06:28;;;;;;;10.82;7.95;;;;;;;17.04;72.59;94934.38;5076782;28;20280;-70
2023/05/30 08:08:55;;;;;;;8.35;7.00;;;;;;;17.17;73.38;94932.75;5076635;28;20189;-71
2023/05/30 08:11:22;;;;;;;11.05;7.25;;;;;;;17.29;73.09;94931.56;5076953;28;20199;-71
2023/05/30 08:13:52;;;;;;;6.40;5.90;;;;;;;17.40;71.11;94942.72;5076484;28;20644;-71
2023/05/30 08:16:21;;;;;;;7.97;6.22;;;;;;;17.38;70.64;94940.31;5076695;28;20207;-73
2023/05/30 08:18:49;;;;;;;5.65;5.15;;;;;;;17.40;69.69;94940.72;5076801;28;20268;-74
2023/05/30 08:21:16;;;;;;;6.93;6.32;;;;;;;17.37;68.28;94947.09;5076304;28;20240;-71
2023/05/30 08:23:46;;;;;;;7.47;6.40;;;;;;;17.37;70.23;94933.16;5077159;28;20193;-74
2023/05/30 08:26:15;;;;;;;8.80;6.53;;;;;;;17.42;71.52;94941.09;5076465;28;20212;-74
2023/05/30 08:28:45;;;;;;;5.75;5.13;;;;;;;17.38;69.16;94945.09;5076857;28;20233;-73
2023/05/30 08:31:11;;;;;;;5.25;4.75;;;;;;;17.37;70.14;94949.88;5076568;28;20207;-74
2023/05/30 08:33:39;;;;;;;5.05;4.55;;;;;;;17.43;70.96;94947.47;5077850;28;20204;-73
2023/05/30 08:36:06;;;;;;;4.82;4.43;;;;;;;17.51;71.44;94949.88;5075885;28;20205;-73
2023/05/30 08:38:34;;;;;;;4.82;4.43;;;;;;;17.55;71.18;94941.50;5076204;28;20216;-73
2023/05/30 08:41:02;;;;;;;5.03;4.55;;;;;;;17.58;72.00;94937.91;5076648;28;20601;-74
2023/05/30 08:43:30;;;;;;;6.40;5.80;;;;;;;17.62;72.79;94935.91;5076816;28;20212;-74
2023/05/30 08:46:01;;;;;;;8.50;7.68;;;;;;;17.66;73.99;94936.69;5076315;28;20201;-73
2023/05/30 08:48:31;;;;;;;10.13;9.10;;;;;;;17.64;73.89;94944.66;5076714;28;20185;-73
2023/05/30 08:51:03;;;;;;;9.52;8.63;;;;;;;17.69;74.51;94933.09;5076173;28;20213;-73
2023/05/30 08:53:33;;;;;;;8.00;6.88;;;;;;;17.84;74.50;94949.81;5076369;28;20193;-73
2023/05/30 08:56:06;;;;;;;7.32;6.47;;;;;;;17.94;72.68;94949.00;5076520;28;20223;-74
2023/05/30 08:58:37;;;;;;;5.25;4.50;;;;;;;18.03;72.47;94946.56;5075656;28;20232;-73
2023/05/30 09:01:06;;;;;;;5.78;5.28;;;;;;;18.07;71.40;94950.13;5075735;28;20536;-74
2023/05/30 09:03:35;;;;;;;5.88;5.32;;;;;;;18.09;72.14;94947.75;5075925;28;20537;-73
2023/05/30 09:06:07;;;;;;;4.53;4.10;;;;;;;18.18;71.44;94944.53;5075558;28;20242;-73
2023/05/30 09:08:36;;;;;;;5.88;4.60;;;;;;;18.25;70.83;94948.06;5075971;28;20204;-74
2023/05/30 09:11:04;;;;;;;4.35;4.00;;;;;;;18.17;68.82;94946.53;5075320;28;20185;-73
2023/05/30 09:13:32;;;;;;;4.05;3.75;;;;;;;18.19;70.52;94946.91;5076083;28;20201;-73
2023/05/30 09:15:59;;;;;;;4.35;3.83;;;;;;;18.28;71.14;94935.31;5075508;28;20201;-73
2023/05/30 09:18:30;;;;;;;5.25;4.75;;;;;;;18.29;69.81;94946.06;5075169;28;20239;-73
2023/05/30 09:20:57;;;;;;;4.47;4.07;;;;;;;18.26;69.15;94957.25;5075494;28;20236;-73
2023/05/30 09:23:29;;;;;;;4.82;4.18;;;;;;;18.21;70.22;94952.88;5075844;28;20193;-74
2023/05/30 09:26:00;;;;;;;5.15;4.70;;;;;;;18.09;68.91;94950.53;5075649;28;20189;-73
2023/05/30 09:28:32;;;;;;;4.05;3.75;;;;;;;18.01;69.80;94951.75;5075475;28;20243;-73
2023/05/30 09:31:02;;;;;;;4.78;4.38;;;;;;;18.03;71.56;94949.38;5075522;28;20193;-73
2023/05/30 09:33:44;;;;;;;4.78;4.43;;;;;;;18.03;71.09;94943.78;5075511;28;20201;-73
2023/05/30 09:36:18;;;;;;;5.32;4.30;;;;;;;17.97;70.54;94939.81;5075340;28;20233;-74
2023/05/30 09:38:56;;;;;;;4.40;4.00;;;;;;;17.96;70.62;94944.59;5075371;28;20225;-73
2023/05/30 09:41:27;;;;;;;4.97;4.47;;;;;;;17.90;70.48;94940.66;5075588;28;20193;-74
2023/05/30 09:44:00;;;;;;;4.20;3.80;;;;;;;17.95;70.63;94936.63;5075378;28;20203;-74
2023/05/30 09:46:30;;;;;;;4.22;3.80;;;;;;;17.88;70.56;94942.25;5074303;28;20193;-73
2023/05/30 09:48:58;;;;;;;4.72;4.43;;;;;;;17.72;70.09;94937.06;5074691;28;20212;-73
2023/05/30 09:51:26;;;;;;;5.30;4.80;;;;;;;17.65;71.44;94940.69;5075019;28;20209;-73
2023/05/30 09:54:03;;;;;;;6.28;5.68;;;;;;;17.66;70.45;94941.47;5074979;28;20204;-73
2023/05/30 09:56:36;;;;;;;5.03;4.63;;;;;;;17.69;69.49;94938.69;5076368;28;20184;-74
2023/05/30 09:59:08;;;;;;;4.97;4.57;;;;;;;17.83;70.59;94934.28;5077201;28;20243;-73
2023/05/30 10:01:40;;;;;;;5.63;4.60;;;;;;;17.99;69.96;94937.41;5077281;28;20597;-74
2023/05/30 10:04:14;;;;;;;4.85;4.15;;;;;;;18.08;69.62;94936.97;5076914;28;20226;-74
2023/05/30 10:06:45;;;;;;;7.15;4.60;;;;;;;18.27;71.06;94917.78;5076466;28;20609;-73
2023/05/30 10:09:14;;;;;;;4.47;4.07;;;;;;;18.29;68.43;94925.72;5076842;28;20185;-73
2023/05/30 10:11:42;;;;;;;5.13;4.28;;;;;;;18.37;68.80;94926.47;5076052;28;20193;-74
2023/05/30 10:14:11;;;;;;;4.80;4.40;;;;;;;18.37;68.24;94924.47;5076772;28;20196;-76
2023/05/30 10:16:44;;;;;;;4.43;3.95;;;;;;;18.30;68.08;94918.97;5075946;28;20208;-73
2023/05/30 10:19:14;;;;;;;5.22;4.70;;;;;;;18.32;69.30;94929.72;5075602;28;20197;-74
2023/05/30 10:21:45;;;;;;;5.03;4.18;;;;;;;18.22;67.20;94926.53;5076004;28;20289;-73
2023/05/30 10:24:20;;;;;;;5.72;4.78;;;;;;;18.15;67.91;94923.00;5077072;28;20222;-74
2023/05/30 10:26:50;;;;;;;5.40;3.92;;;;;;;18.23;69.32;94921.78;5075150;28;20291;-74
2023/05/30 10:29:20;;;;;;;4.28;3.65;;;;;;;18.34;68.79;94911.34;5074344;28;20687;-74
2023/05/30 10:31:49;;;;;;;6.38;4.10;;;;;;;18.45;66.66;94905.72;5074181;28;20217;-74
2023/05/30 10:34:19;;;;;;;4.00;3.70;;;;;;;18.56;64.59;94905.66;5076022;28;20255;-74
2023/05/30 10:36:48;;;;;;;5.13;3.70;;;;;;;18.89;66.11;94898.66;5075031;28;20197;-73
2023/05/30 10:39:29;;;;;;;4.18;3.78;;;;;;;19.26;65.22;94897.94;5075310;28;20197;-74
2023/05/30 10:42:05;;;;;;;4.78;3.22;;;;;;;19.41;65.34;94891.00;5075884;28;20205;-73
2023/05/30 10:44:44;;;;;;;4.20;3.10;;;;;;;19.53;62.93;94891.69;5075638;28;20201;-73
2023/05/30 10:47:21;;;;;;;3.55;3.25;;;;;;;19.70;62.94;94887.97;5076098;28;20246;-74
2023/05/30 10:49:49;;;;;;;4.68;3.03;;;;;;;19.88;64.30;94887.75;5074930;28;20239;-73
2023/05/30 10:52:17;;;;;;;3.35;2.88;;;;;;;20.08;62.51;94882.31;5075131;28;20211;-74
2023/05/30 10:54:55;;;;;;;3.30;3.00;;;;;;;20.12;62.33;94889.47;5075864;28;20254;-71
2023/05/30 10:57:28;;;;;;;3.35;3.13;;;;;;;20.18;62.43;94884.97;5074699;28;20212;-72
2023/05/30 10:59:56;;;;;;;3.50;2.70;;;;;;;20.28;62.50;94874.84;5078775;28;20204;-71
2023/05/30 11:02:38;;;;;;;3.15;2.95;;;;;;;20.44;63.56;94869.44;5078856;28;20213;-72
2023/05/30 11:05:10;;;;;;;3.55;3.10;;;;;;;20.70;63.81;94869.91;5078840;28;20199;-72
2023/05/30 11:07:43;;;;;;;3.20;3.00;;;;;;;20.76;59.73;94871.00;5078212;28;20311;-75
2023/05/30 11:10:27;;;;;;;3.05;2.47;;;;;;;20.73;60.93;94873.84;5078753;28;20229;-72
2023/05/30 11:13:10;;;;;;;4.18;2.80;;;;;;;20.66;60.59;94864.34;5078284;28;20201;-73
2023/05/30 11:15:53;;;;;;;2.38;2.25;;;;;;;20.76;61.28;94862.59;5077740;28;20281;-72
2023/05/30 11:18:27;;;;;;;2.97;2.78;;;;;;;20.98;61.40;94845.44;5077849;28;20213;-71
2023/05/30 11:20:58;;;;;;;3.67;2.92;;;;;;;20.94;58.34;94847.50;5077576;28;20217;-71
2023/05/30 11:23:29;;;;;;;2.40;2.22;;;;;;;20.95;58.38;94838.66;5077830;28;20220;-72
2023/05/30 11:25:59;;;;;;;3.45;2.90;;;;;;;21.14;60.25;94837.94;5077890;28;20204;-70
2023/05/30 11:28:35;;;;;;;3.80;3.50;;;;;;;21.18;58.08;94834.28;5077856;28;20214;-72
2023/05/30 11:31:17;;;;;;;3.75;3.33;;;;;;;21.22;59.05;94832.22;5077523;28;20224;-72
2023/05/30 11:33:46;;;;;;;5.38;3.78;;;;;;;21.32;58.82;94822.81;5078242;28;20234;-75
2023/05/30 11:36:17;;;;;;;6.18;3.70;;;;;;;21.24;58.47;94822.16;5079291;28;20217;-75
2023/05/30 11:38:48;;;;;;;4.07;3.20;;;;;;;21.29;58.53;94818.84;5078979;28;20706;-75
2023/05/30 11:41:19;;;;;;;3.03;2.80;;;;;;;21.49;61.59;94820.91;5077688;28;20197;-75